Time;durP1;ratioP1;P1;durP2;ratioP2;P2;SDS_P1;SDS_P2;PMS_P1;PMS_P2;Temp;Humidity;BMP_temperature;BMP_pressure;BME280_temperature;BME280_humidity;BME280_pressure;Samples;Min_cycle;Max_cycle;Signal;HPM_P1;HPM_P2
2022/07/14 00:00:00;;;;;;;;;;;;;;;20.46;56.40;152796.67;1746767;82;21304;-63
2022/07/14 00:02:27;;;;;;;;;;;;;;;20.45;56.45;152794.06;1746845;81;20196;-63
2022/07/14 00:04:53;;;;;;;;;;;;;;;20.41;56.50;152783.58;1746972;81;20205;-63
2022/07/14 00:07:20;;;;;;;;;;;;;;;20.34;56.83;152766.63;1747131;80;20213;-63
2022/07/14 00:09:47;;;;;;;;;;;;;;;20.35;56.91;152767.91;1747007;81;20213;-63
2022/07/14 00:12:13;;;;;;;;;;;;;;;20.30;57.06;152757.47;1761993;80;21251;-61
2022/07/14 00:14:40;;;;;;;;;;;;;;;20.28;57.12;152752.25;1762574;81;20442;-61
2022/07/14 00:17:07;;;;;;;;;;;;;;;20.25;57.32;152744.42;1762701;80;20409;-62
2022/07/14 00:19:34;;;;;;;;;;;;;;;20.25;57.36;152743.09;1762969;81;20128;-62
2022/07/14 00:22:00;;;;;;;;;;;;;;;20.19;57.42;152728.72;1762879;81;20426;-61
2022/07/14 00:24:27;;;;;;;;;;;;;;;20.17;57.68;152723.50;1762674;81;21872;-61
2022/07/14 00:26:54;;;;;;;;;;;;;;;20.15;57.72;152719.59;1762520;81;20140;-62
2022/07/14 00:29:21;;;;;;;;;;;;;;;20.09;57.82;152703.89;1762821;80;20297;-62
2022/07/14 00:31:47;;;;;;;;;;;;;;;20.07;57.98;152697.39;1762476;81;20211;-62
2022/07/14 00:34:14;;;;;;;;;;;;;;;20.02;58.02;152686.95;1762822;81;20132;-62
2022/07/14 00:36:41;;;;;;;;;;;;;;;20.03;58.17;152689.56;1762713;81;21131;-63
2022/07/14 00:39:08;;;;;;;;;;;;;;;20.07;58.04;152698.67;1760434;81;20122;-62
2022/07/14 00:41:36;;;;;;;;;;;;;;;20.10;58.01;152705.22;1747438;82;32397;-62
2022/07/14 00:44:03;;;;;;;;;;;;;;;20.10;57.85;152706.50;1746974;81;20224;-63
2022/07/14 00:46:30;;;;;;;;;;;;;;;20.04;57.85;152692.17;1734181;80;20484;-63
2022/07/14 00:48:57;;;;;;;;;;;;;;;19.98;58.05;152675.19;1717335;83;21190;-64
2022/07/14 00:51:23;;;;;;;;;;;;;;;19.97;58.25;152672.58;1717457;83;20195;-62
2022/07/14 00:53:55;;;;;;;;;;;;;;;19.99;58.17;152679.08;1717310;83;20219;-62
2022/07/14 00:56:22;;;;;;;;;;;;;;;19.96;58.20;152671.25;1714381;81;20483;-62
2022/07/14 00:58:49;;;;;;;;;;;;;;;19.94;58.42;152664.75;1711317;83;20220;-63
2022/07/14 01:01:15;;;;;;;;;;;;;;;19.89;58.47;152652.92;1711744;83;21148;-63
2022/07/14 01:03:43;;;;;;;;;;;;;;;19.84;58.68;152641.16;1747829;82;20587;-63
2022/07/14 01:06:10;;;;;;;;;;;;;;;19.83;58.79;152637.28;1711768;83;20224;-63
2022/07/14 01:08:37;;;;;;;;;;;;;;;19.78;58.99;152624.17;1747962;82;20140;-63
2022/07/14 01:11:08;;;;;;;;;;;;;;;19.68;59.49;152599.41;1722585;82;20190;-63
2022/07/14 01:13:36;;;;;;;;;;;;;;;19.63;59.75;152586.31;1802692;79;21231;-63
2022/07/14 01:16:04;;;;;;;;;;;;;;;19.58;59.94;152575.88;1802810;79;20141;-63
2022/07/14 01:18:32;;;;;;;;;;;;;;;19.47;60.29;152548.47;1803044;79;20145;-63
2022/07/14 01:21:00;;;;;;;;;;;;;;;19.40;60.67;152530.20;1802397;79;20462;-63
2022/07/14 01:23:26;;;;;;;;;;;;;;;19.35;61.02;152515.83;1802718;79;20121;-63
2022/07/14 01:25:53;;;;;;;;;;;;;;;19.29;61.29;152502.78;1802516;78;20941;-63
2022/07/14 01:28:20;;;;;;;;;;;;;;;19.29;61.66;152502.78;1802612;78;20193;-63
2022/07/14 01:30:47;;;;;;;;;;;;;;;19.32;61.62;152509.28;1802847;79;20150;-63
2022/07/14 01:33:14;;;;;;;;;;;;;;;19.31;61.81;152506.67;1802839;79;20079;-63
2022/07/14 01:35:41;;;;;;;;;;;;;;;19.32;61.96;152509.28;1803167;79;20179;-62
2022/07/14 01:38:08;;;;;;;;;;;;;;;19.32;62.03;152510.61;1802818;79;21141;-62
2022/07/14 01:40:36;;;;;;;;;;;;;;;19.29;62.12;152501.45;1784269;79;20506;-62
2022/07/14 01:43:03;;;;;;;;;;;;;;;19.29;62.37;152502.78;1778761;79;20419;-63
2022/07/14 01:45:30;;;;;;;;;;;;;;;19.34;62.41;152514.50;1778885;80;21838;-62
2022/07/14 01:47:58;;;;;;;;;;;;;;;19.35;62.18;152517.16;1778927;80;20169;-63
2022/07/14 01:50:26;;;;;;;;;;;;;;;19.33;62.32;152511.89;1779157;80;21230;-63
2022/07/14 01:52:52;;;;;;;;;;;;;;;19.30;62.46;152505.39;1778956;80;20471;-63
2022/07/14 01:55:20;;;;;;;;;;;;;;;19.32;62.40;152509.28;1778855;80;20479;-62
2022/07/14 01:57:47;;;;;;;;;;;;;;;19.27;62.43;152497.56;1773733;80;20431;-63
2022/07/14 02:00:16;;;;;;;;;;;;;;;19.22;62.50;152483.19;1773982;80;20134;-63
2022/07/14 02:02:48;;;;;;;;;;;;;;;19.22;62.71;152484.47;1774085;80;21235;-63
2022/07/14 02:05:15;;;;;;;;;;;;;;;19.28;62.66;152500.17;1773699;80;20498;-63
2022/07/14 02:07:43;;;;;;;;;;;;;;;19.35;62.37;152517.16;1758237;81;20125;-62
2022/07/14 02:12:58;;;;;;;;;;;;;;;19.41;62.04;152531.48;1810770;79;20169;-62
2022/07/14 02:15:25;;;;;;;;;;;;;;;19.39;61.99;152527.59;1811093;78;21239;-62
2022/07/14 02:17:52;;;;;;;;;;;;;;;19.40;61.96;152528.88;1810970;79;20106;-62
2022/07/14 02:20:21;;;;;;;;;;;;;;;19.40;62.01;152530.20;1811126;79;20202;-62
2022/07/14 02:22:48;;;;;;;;;;;;;;;19.39;61.96;152527.59;1810895;79;20166;-62
2022/07/14 02:25:14;;;;;;;;;;;;;;;19.45;62.11;152541.91;1811113;79;20167;-61
2022/07/14 02:27:42;;;;;;;;;;;;;;;19.51;61.90;152557.62;1811335;79;21112;-61
2022/07/14 02:30:10;;;;;;;;;;;;;;;19.56;61.93;152570.66;1811046;79;20396;-63
2022/07/14 02:32:38;;;;;;;;;;;;;;;19.65;61.82;152592.86;1811649;79;20137;-63
2022/07/14 02:35:06;;;;;;;;;;;;;;;19.71;61.71;152608.52;1782773;79;20592;-63
2022/07/14 02:37:33;;;;;;;;;;;;;;;19.83;61.62;152637.28;1748569;80;20482;-63
2022/07/14 02:40:00;;;;;;;;;;;;;;;19.93;61.27;152663.41;1766264;80;20537;-63
2022/07/14 02:42:26;;;;;;;;;;;;;;;19.93;61.19;152663.41;1779035;79;20146;-62
2022/07/14 02:44:54;;;;;;;;;;;;;;;19.94;61.28;152666.03;1778402;80;20694;-62
2022/07/14 02:47:21;;;;;;;;;;;;;;;19.96;61.26;152671.25;1778673;80;20798;-62
2022/07/14 02:49:48;;;;;;;;;;;;;;;19.96;61.28;152671.25;1778841;80;20454;-62
2022/07/14 02:52:15;;;;;;;;;;;;;;;19.96;61.42;152669.97;1779121;80;21941;-63
2022/07/14 02:54:43;;;;;;;;;;;;;;;19.98;61.37;152676.47;1778964;80;20154;-62
2022/07/14 02:57:12;;;;;;;;;;;;;;;19.99;61.35;152677.80;1782276;80;20139;-62
2022/07/14 02:59:43;;;;;;;;;;;;;;;20.01;61.40;152684.34;1784390;80;20441;-62
2022/07/14 03:02:09;;;;;;;;;;;;;;;20.04;61.47;152690.84;1784335;80;20158;-62
2022/07/14 03:04:36;;;;;;;;;;;;;;;20.08;61.46;152700.00;1784433;80;21130;-62
2022/07/14 03:07:05;;;;;;;;;;;;;;;20.12;61.35;152710.44;1784208;80;20098;-62
2022/07/14 03:09:31;;;;;;;;;;;;;;;20.14;61.30;152715.66;1784541;80;20165;-62
2022/07/14 03:12:00;;;;;;;;;;;;;;;20.16;61.28;152720.88;1765564;80;20192;-62
2022/07/14 03:14:27;;;;;;;;;;;;;;;20.19;61.27;152728.72;1762798;81;20172;-62
2022/07/14 03:16:54;;;;;;;;;;;;;;;20.25;61.18;152743.09;1762690;81;21224;-63
2022/07/14 03:19:21;;;;;;;;;;;;;;;20.30;61.11;152756.14;1762968;81;20205;-63
2022/07/14 03:21:48;;;;;;;;;;;;;;;20.36;61.04;152770.53;1762863;81;20175;-62
2022/07/14 03:24:15;;;;;;;;;;;;;;;20.42;60.96;152786.19;1763019;81;20148;-63
2022/07/14 03:26:43;;;;;;;;;;;;;;;20.48;60.93;152801.91;1762718;81;20459;-63
2022/07/14 03:29:11;;;;;;;;;;;;;;;20.57;60.77;152825.39;1762660;81;21307;-63
2022/07/14 03:31:38;;;;;;;;;;;;;;;20.67;60.61;152848.89;1763004;80;20170;-62
2022/07/14 03:34:07;;;;;;;;;;;;;;;20.74;60.35;152867.22;1762793;80;20211;-63
2022/07/14 03:36:34;;;;;;;;;;;;;;;20.83;60.13;152889.48;1762745;80;20168;-62
2022/07/14 03:39:01;;;;;;;;;;;;;;;20.88;59.99;152903.81;1765051;79;20199;-62
2022/07/14 03:41:28;;;;;;;;;;;;;;;20.95;59.84;152919.53;1784074;79;21121;-63
2022/07/14 03:43:55;;;;;;;;;;;;;;;21.07;59.60;152950.88;1753075;80;20254;-63
2022/07/14 03:46:22;;;;;;;;;;;;;;;21.18;59.25;152979.66;1784030;80;20114;-62
2022/07/14 03:48:51;;;;;;;;;;;;;;;21.27;58.93;153000.55;1782896;80;20189;-63
2022/07/14 03:51:18;;;;;;;;;;;;;;;21.41;58.62;153037.16;1784409;80;20173;-64
2022/07/14 03:53:45;;;;;;;;;;;;;;;21.58;57.87;153079.00;1784107;80;21122;-63
2022/07/14 03:56:13;;;;;;;;;;;;;;;21.68;57.11;153103.91;1782879;80;20127;-63
2022/07/14 03:58:43;;;;;;;;;;;;;;;21.84;56.63;153144.42;1773629;80;20138;-63
2022/07/14 04:01:09;;;;;;;;;;;;;;;22.06;55.97;153199.34;1773601;80;20138;-62
2022/07/14 04:03:37;;;;;;;;;;;;;;;22.25;55.30;153249.03;1773683;81;20174;-63
2022/07/14 04:06:04;;;;;;;;;;;;;;;22.44;54.66;153296.14;1773451;80;21242;-63
2022/07/14 04:08:33;;;;;;;;;;;;;;;22.58;54.18;153332.78;1774217;81;20183;-64
2022/07/14 04:11:02;;;;;;;;;;;;;;;22.76;53.73;153377.27;1757656;80;20183;-64
2022/07/14 04:13:32;;;;;;;;;;;;;;;22.94;53.27;153423.05;1741758;81;20161;-64
2022/07/14 04:15:59;;;;;;;;;;;;;;;23.12;52.75;153468.88;1741520;82;20244;-64
2022/07/14 04:18:26;;;;;;;;;;;;;;;23.26;52.16;153502.91;1741632;82;21242;-64
2022/07/14 04:20:54;;;;;;;;;;;;;;;23.41;51.81;153542.19;1741615;82;20224;-63
2022/07/14 04:23:23;;;;;;;;;;;;;;;23.59;51.42;153587.98;1757635;80;20497;-64
2022/07/14 04:25:50;;;;;;;;;;;;;;;23.75;50.80;153628.55;1756136;81;20470;-64
2022/07/14 04:28:19;;;;;;;;;;;;;;;23.89;50.40;153663.94;1773840;80;20415;-63
2022/07/14 04:30:47;;;;;;;;;;;;;;;24.06;50.00;153704.56;1773414;81;21226;-62
2022/07/14 04:33:14;;;;;;;;;;;;;;;24.25;49.65;153754.33;1777556;80;20121;-62
2022/07/14 04:35:43;;;;;;;;;;;;;;;24.41;49.12;153793.56;1778882;80;20205;-62
2022/07/14 04:38:09;;;;;;;;;;;;;;;24.52;48.60;153822.41;1778661;80;20782;-62
2022/07/14 04:40:46;;;;;;;;;;;;;;;24.65;48.28;153853.81;1778364;79;20205;-63
2022/07/14 04:43:13;;;;;;;;;;;;;;;24.79;47.78;153890.56;1778106;80;21251;-63
2022/07/14 04:45:40;;;;;;;;;;;;;;;24.91;47.11;153919.39;1778450;80;20379;-62
2022/07/14 04:48:07;;;;;;;;;;;;;;;24.99;46.53;153940.33;1778692;80;20222;-62
2022/07/14 04:53:20;;;;;;;;;;;;;;;25.05;46.02;153954.75;1778976;80;20483;-63
2022/07/14 04:55:49;;;;;;;;;;;;;;;25.10;45.78;153969.17;1777763;80;21364;-62
2022/07/14 04:58:35;;;;;;;;;;;;;;;25.08;45.89;153962.61;1783342;80;20113;-62
2022/07/14 05:01:03;;;;;;;;;;;;;;;25.17;45.80;153987.50;1784143;80;20197;-63
2022/07/14 05:03:32;;;;;;;;;;;;;;;25.22;45.41;153999.31;1783944;80;20452;-62
2022/07/14 05:05:58;;;;;;;;;;;;;;;25.24;45.31;154003.22;1783846;80;20430;-64
2022/07/14 05:08:25;;;;;;;;;;;;;;;25.14;45.37;153979.66;1783648;80;21217;-64
2022/07/14 05:10:52;;;;;;;;;;;;;;;25.11;45.36;153971.80;1779031;79;20204;-64
2022/07/14 05:13:20;;;;;;;;;;;;;;;25.03;45.47;153950.80;1772832;79;20148;-63
2022/07/14 05:15:47;;;;;;;;;;;;;;;25.00;45.52;153942.95;1783642;79;20174;-63
2022/07/14 05:18:13;;;;;;;;;;;;;;;24.96;45.63;153932.48;1789288;79;20377;-64
2022/07/14 05:20:42;;;;;;;;;;;;;;;24.96;45.63;153932.48;1784646;79;21232;-64
2022/07/14 05:23:09;;;;;;;;;;;;;;;24.94;45.69;153927.25;1790942;79;20182;-64
2022/07/14 05:25:37;;;;;;;;;;;;;;;24.89;45.95;153916.78;1783487;79;20183;-63
2022/07/14 05:28:04;;;;;;;;;;;;;;;24.91;45.83;153920.67;1781256;79;20223;-63
2022/07/14 05:30:33;;;;;;;;;;;;;;;24.87;45.75;153911.53;1793986;79;20188;-64
2022/07/14 05:33:00;;;;;;;;;;;;;;;24.74;46.23;153877.42;1792486;79;21249;-63
2022/07/14 05:35:29;;;;;;;;;;;;;;;24.79;46.23;153890.56;1796777;79;20246;-63
2022/07/14 05:37:57;;;;;;;;;;;;;;;24.83;46.18;153899.73;1793968;79;20186;-64
2022/07/14 05:40:23;;;;;;;;;;;;;;;24.89;46.05;153916.78;1783583;79;20168;-63
2022/07/14 05:42:50;;;;;;;;;;;;;;;24.87;46.15;153910.20;1801127;79;20190;-64
2022/07/14 05:45:17;;;;;;;;;;;;;;;24.90;46.28;153918.06;1783320;79;21135;-63
2022/07/14 05:47:43;;;;;;;;;;;;;;;24.96;46.16;153933.77;1786598;78;20463;-64
2022/07/14 05:50:10;;;;;;;;;;;;;;;25.00;46.19;153942.95;1788605;79;20464;-63
2022/07/14 05:52:39;;;;;;;;;;;;;;;25.10;46.14;153969.17;1785227;79;20830;-63
2022/07/14 05:55:09;;;;;;;;;;;;;;;25.21;45.60;153996.69;1788175;79;20492;-63
2022/07/14 05:57:37;;;;;;;;;;;;;;;25.16;45.70;153984.88;1781407;79;21083;-65
2022/07/14 06:00:06;;;;;;;;;;;;;;;25.16;45.69;153984.88;1780548;79;20636;-62
2022/07/14 06:02:35;;;;;;;;;;;;;;;25.15;45.78;153982.27;1780082;78;20172;-61
2022/07/14 06:05:02;;;;;;;;;;;;;;;25.18;45.97;153988.78;1792831;79;20201;-63
2022/07/14 06:07:30;;;;;;;;;;;;;;;25.29;45.91;154016.30;1785187;79;20203;-62
2022/07/14 06:09:58;;;;;;;;;;;;;;;25.41;45.57;154046.44;1751853;80;21331;-62
2022/07/14 06:12:24;;;;;;;;;;;;;;;25.50;45.54;154068.77;1760909;80;20246;-63
2022/07/14 06:14:51;;;;;;;;;;;;;;;25.57;45.51;154088.44;1769037;80;20257;-62
2022/07/14 06:17:18;;;;;;;;;;;;;;;25.68;45.37;154115.94;1765839;81;20170;-63
2022/07/14 06:19:46;;;;;;;;;;;;;;;25.79;45.09;154142.19;1767564;80;20441;-63
2022/07/14 06:22:14;;;;;;;;;;;;;;;25.87;45.02;154163.14;1758724;80;21136;-63
2022/07/14 06:24:41;;;;;;;;;;;;;;;25.88;44.68;154165.75;1756777;80;20147;-63
2022/07/14 06:27:09;;;;;;;;;;;;;;;25.90;44.92;154171.00;1764088;80;20200;-63
2022/07/14 06:29:37;;;;;;;;;;;;;;;26.09;44.65;154218.19;1766631;80;20471;-63
2022/07/14 06:32:05;;;;;;;;;;;;;;;26.33;44.22;154279.88;1760646;80;20178;-63
2022/07/14 06:34:31;;;;;;;;;;;;;;;26.50;44.01;154321.78;1762391;80;20655;-63
2022/07/14 06:37:00;;;;;;;;;;;;;;;26.62;43.75;154351.94;1751288;81;20169;-63
2022/07/14 06:39:27;;;;;;;;;;;;;;;26.81;43.43;154401.77;1758855;81;20229;-63
2022/07/14 06:41:54;;;;;;;;;;;;;;;26.95;43.02;154435.94;1767023;81;20516;-63
2022/07/14 06:44:23;;;;;;;;;;;;;;;26.92;42.77;154429.36;1761648;80;20097;-63
2022/07/14 06:46:51;;;;;;;;;;;;;;;26.91;43.03;154425.45;1758960;81;21250;-63
2022/07/14 06:49:19;;;;;;;;;;;;;;;27.06;42.64;154464.77;1767526;81;20133;-63
2022/07/14 06:51:46;;;;;;;;;;;;;;;27.15;41.96;154488.41;1765469;81;20189;-63
2022/07/14 06:54:13;;;;;;;;;;;;;;;27.02;42.06;154454.28;1766631;81;20586;-63
2022/07/14 06:56:39;;;;;;;;;;;;;;;26.86;42.38;154414.97;1756363;81;20182;-63
2022/07/14 06:59:06;;;;;;;;;;;;;;;26.87;42.80;154417.59;1753140;80;21905;-62
2022/07/14 07:01:32;;;;;;;;;;;;;;;27.12;42.14;154480.53;1754105;80;20184;-63
2022/07/14 07:03:59;;;;;;;;;;;;;;;27.16;41.93;154491.03;1713436;83;20129;-63
2022/07/14 07:06:44;;;;;;;;;;;;;;;27.21;41.64;154501.50;1713138;82;20206;-64
2022/07/14 07:09:12;;;;;;;;;;;;;;;27.23;41.58;154506.75;1718760;81;20453;-63
2022/07/14 07:11:57;;;;;;;;;;;;;;;27.21;41.75;154501.50;1714352;82;20207;-63
2022/07/14 07:14:24;;;;;;;;;;;;;;;27.27;41.58;154518.56;1714870;82;20197;-64
2022/07/14 07:16:50;;;;;;;;;;;;;;;27.28;40.92;154521.19;1716416;82;20224;-64
2022/07/14 07:19:17;;;;;;;;;;;;;;;27.05;41.44;154462.14;1716809;82;20471;-63
2022/07/14 07:21:45;;;;;;;;;;;;;;;27.03;41.69;154456.91;1724764;81;20208;-63
2022/07/14 07:24:12;;;;;;;;;;;;;;;27.07;41.27;154467.39;1719634;82;21246;-62
2022/07/14 07:26:40;;;;;;;;;;;;;;;27.05;41.25;154462.14;1711922;82;20855;-62
2022/07/14 07:29:07;;;;;;;;;;;;;;;27.06;41.36;154464.77;1714985;81;20219;-63
2022/07/14 07:31:34;;;;;;;;;;;;;;;27.10;41.37;154473.97;1720986;82;20179;-64
2022/07/14 07:34:00;;;;;;;;;;;;;;;27.02;41.28;154454.28;1724294;82;20175;-62
2022/07/14 07:36:27;;;;;;;;;;;;;;;26.98;41.68;154443.80;1725755;82;21305;-63
2022/07/14 07:38:54;;;;;;;;;;;;;;;27.07;41.56;154467.39;1717859;82;21565;-63
2022/07/14 07:41:21;;;;;;;;;;;;;;;26.97;41.45;154442.52;1728795;81;20138;-63
2022/07/14 07:43:48;;;;;;;;;;;;;;;26.82;41.93;154404.39;1721368;82;20167;-63
2022/07/14 07:46:15;;;;;;;;;;;;;;;26.83;42.28;154407.02;1729049;82;20431;-62
2022/07/14 07:48:42;;;;;;;;;;;;;;;27.04;41.69;154459.52;1725778;82;20764;-63
2022/07/14 07:51:10;;;;;;;;;;;;;;;27.16;41.19;154491.03;1721402;82;20174;-64
2022/07/14 07:53:37;;;;;;;;;;;;;;;27.17;41.25;154493.64;1723193;82;20173;-63
2022/07/14 07:56:04;;;;;;;;;;;;;;;27.08;41.30;154470.06;1724607;82;20269;-63
2022/07/14 07:58:31;;;;;;;;;;;;;;;27.06;41.47;154463.47;1768940;79;20694;-63
2022/07/14 08:00:58;;;;;;;;;;;;;;;27.24;41.41;154509.38;1799773;79;21254;-63
2022/07/14 08:03:25;;;;;;;;;;;;;;;27.46;41.21;154565.80;1802572;79;20138;-62
2022/07/14 08:05:52;;;;;;;;;;;;;;;27.49;40.91;154572.31;1789335;79;20484;-64
2022/07/14 08:08:20;;;;;;;;;;;;;;;27.50;40.81;154576.28;1782573;79;20135;-63
2022/07/14 08:10:49;;;;;;;;;;;;;;;27.60;40.61;154601.25;1787517;79;20185;-64
2022/07/14 08:13:16;;;;;;;;;;;;;;;27.45;40.78;154564.47;1774419;79;21105;-63
2022/07/14 08:15:43;;;;;;;;;;;;;;;27.39;40.87;154548.73;1787126;79;20196;-63
2022/07/14 08:18:10;;;;;;;;;;;;;;;27.48;40.79;154569.70;1757179;81;20268;-63
2022/07/14 08:20:37;;;;;;;;;;;;;;;27.59;40.82;154598.64;1791991;79;20615;-63
2022/07/14 08:23:04;;;;;;;;;;;;;;;27.72;40.42;154632.72;1782265;80;20228;-63
2022/07/14 08:25:32;;;;;;;;;;;;;;;27.78;40.47;154645.88;1782529;80;21882;-63
2022/07/14 08:27:59;;;;;;;;;;;;;;;27.81;40.37;154653.75;1773373;80;20205;-63
2022/07/14 08:30:26;;;;;;;;;;;;;;;27.78;40.22;154645.88;1780773;80;20146;-64
2022/07/14 08:32:53;;;;;;;;;;;;;;;27.80;40.26;154651.13;1780089;80;20630;-63
2022/07/14 08:35:23;;;;;;;;;;;;;;;27.86;40.43;154666.84;1779231;80;20185;-64
2022/07/14 08:37:50;;;;;;;;;;;;;;;27.94;40.42;154686.55;1772939;80;21255;-63
2022/07/14 08:40:18;;;;;;;;;;;;;;;28.01;40.21;154706.23;1776003;80;20172;-65
2022/07/14 08:42:50;;;;;;;;;;;;;;;28.09;40.24;154724.58;1780460;80;20119;-63
2022/07/14 08:45:19;;;;;;;;;;;;;;;28.13;40.05;154735.06;1785931;80;20167;-63
2022/07/14 08:47:46;;;;;;;;;;;;;;;28.15;39.88;154740.31;1779969;80;20167;-64
2022/07/14 08:50:17;;;;;;;;;;;;;;;28.18;40.10;154748.23;1779909;80;21960;-64
2022/07/14 08:52:44;;;;;;;;;;;;;;;28.36;40.12;154794.20;1776367;80;20422;-64
2022/07/14 08:55:13;;;;;;;;;;;;;;;28.56;39.69;154845.38;1774227;80;20179;-63
2022/07/14 08:57:41;;;;;;;;;;;;;;;28.71;39.31;154883.42;1783911;80;20793;-63
2022/07/14 09:00:11;;;;;;;;;;;;;;;28.90;38.90;154930.75;1764725;81;20172;-63
2022/07/14 09:02:39;;;;;;;;;;;;;;;28.96;38.71;154945.19;1745655;81;21230;-64
2022/07/14 09:05:07;;;;;;;;;;;;;;;29.05;38.78;154968.81;1740033;80;20120;-64
2022/07/14 09:07:38;;;;;;;;;;;;;;;28.99;38.59;154953.06;1752923;81;20126;-63
2022/07/14 09:10:07;;;;;;;;;;;;;;;28.99;38.78;154953.06;1783007;79;20209;-64
2022/07/14 09:12:35;;;;;;;;;;;;;;;29.08;38.12;154976.72;1742378;80;20140;-63
2022/07/14 09:17:57;;;;;;;;;;;;;;;28.88;38.94;154926.84;1771008;79;20201;-63
2022/07/14 09:20:25;;;;;;;;;;;;;;;29.18;38.55;155000.34;1783669;79;21139;-63
2022/07/14 09:22:56;;;;;;;;;;;;;;;29.28;38.13;155026.58;1781207;79;20175;-63
2022/07/14 09:25:23;;;;;;;;;;;;;;;29.30;37.74;155031.88;1773862;79;20186;-63
2022/07/14 09:27:50;;;;;;;;;;;;;;;29.23;37.91;155013.47;1794041;79;21224;-63
2022/07/14 09:30:18;;;;;;;;;;;;;;;29.20;37.88;155006.92;1775772;79;20141;-64
2022/07/14 09:32:56;;;;;;;;;;;;;;;29.20;37.65;155005.59;1784608;78;20174;-62
2022/07/14 09:35:25;;;;;;;;;;;;;;;29.24;37.62;155016.08;1777786;78;20531;-63
2022/07/14 09:37:53;;;;;;;;;;;;;;;29.34;37.05;155041.03;1776712;79;20522;-62
2022/07/14 09:40:25;;;;;;;;;;;;;;;29.16;37.51;154996.38;1775413;79;21772;-63
2022/07/14 09:42:56;;;;;;;;;;;;;;;29.18;37.22;155001.67;1767304;79;20897;-63
2022/07/14 09:45:29;;;;;;;;;;;;;;;29.22;36.91;155010.84;1771062;79;20190;-63
2022/07/14 09:48:04;;;;;;;;;;;;;;;29.21;37.10;155008.22;1771255;79;20486;-63
2022/07/14 09:50:43;;;;;;;;;;;;;;;29.22;37.34;155010.84;1773437;79;20449;-64
2022/07/14 09:53:11;;;;;;;;;;;;;;;29.27;37.03;155023.95;1767334;79;21076;-64
2022/07/14 09:55:39;;;;;;;;;;;;;;;29.43;36.48;155066.03;1767404;79;20182;-64
2022/07/14 09:58:07;;;;;;;;;;;;;;;29.71;36.18;155136.94;1773698;79;20495;-64
2022/07/14 10:00:56;;;;;;;;;;;;;;;29.91;35.93;155185.56;1783071;80;20474;-63
2022/07/14 10:03:24;;;;;;;;;;;;;;;29.87;35.48;155176.36;1783772;79;20142;-64
2022/07/14 10:05:52;;;;;;;;;;;;;;;29.90;35.82;155184.23;1781328;79;21164;-64
2022/07/14 10:08:19;;;;;;;;;;;;;;;30.03;35.62;155217.13;1775955;79;20189;-64
2022/07/14 10:10:46;;;;;;;;;;;;;;;30.09;34.58;155231.58;1773869;79;20197;-63
2022/07/14 10:13:13;;;;;;;;;;;;;;;29.96;34.96;155200.03;1779078;79;20177;-63
2022/07/14 10:15:41;;;;;;;;;;;;;;;29.99;34.87;155206.56;1777851;79;20478;-64
2022/07/14 10:18:08;;;;;;;;;;;;;;;30.00;35.00;155210.53;1783724;80;21124;-64
2022/07/14 10:20:35;;;;;;;;;;;;;;;30.06;34.71;155223.70;1778346;79;20197;-64
2022/07/14 10:23:02;;;;;;;;;;;;;;;30.11;34.71;155236.83;1779513;79;20149;-64
2022/07/14 10:25:29;;;;;;;;;;;;;;;30.28;34.36;155281.50;1781575;79;20162;-64
2022/07/14 10:27:55;;;;;;;;;;;;;;;30.25;34.24;155273.63;1781331;80;20175;-64
2022/07/14 10:30:41;;;;;;;;;;;;;;;30.07;34.30;155226.33;1782054;79;21263;-64
2022/07/14 10:33:18;;;;;;;;;;;;;;;29.92;34.47;155189.48;1758747;79;20205;-64
2022/07/14 10:35:57;;;;;;;;;;;;;;;29.95;34.77;155196.06;1781423;79;20417;-64
2022/07/14 10:39:01;;;;;;;;;;;;;;;30.19;34.54;155256.53;1729802;80;20180;-64
2022/07/14 10:41:37;;;;;;;;;;;;;;;30.49;34.00;155332.72;1780226;79;20233;-64
2022/07/14 10:44:23;;;;;;;;;;;;;;;30.67;33.58;155380.09;1783890;79;21294;-64
2022/07/14 10:46:52;;;;;;;;;;;;;;;30.84;33.04;155422.16;1782074;79;20177;-65
2022/07/14 10:49:19;;;;;;;;;;;;;;;30.69;32.94;155385.34;1780651;79;20178;-65
2022/07/14 10:51:51;;;;;;;;;;;;;;;30.52;33.31;155340.66;1781906;79;20194;-65
2022/07/14 10:54:26;;;;;;;;;;;;;;;30.47;33.51;155328.81;1776793;79;20207;-65
2022/07/14 10:57:12;;;;;;;;;;;;;;;30.45;33.28;155324.84;1775484;79;20220;-65
2022/07/14 10:59:40;;;;;;;;;;;;;;;30.25;33.44;155272.30;1731105;80;20637;-65
2022/07/14 11:02:18;;;;;;;;;;;;;;;30.06;33.66;155223.70;1717815;82;20199;-65
2022/07/14 11:05:11;;;;;;;;;;;;;;;30.04;33.98;155218.45;1776760;79;20429;-64
2022/07/14 11:07:41;;;;;;;;;;;;;;;30.09;33.90;155232.91;1771605;79;20520;-64
2022/07/14 11:10:20;;;;;;;;;;;;;;;30.19;33.56;155257.88;1774803;79;21204;-63
2022/07/14 11:13:07;;;;;;;;;;;;;;;30.21;33.21;155261.78;1771631;79;20202;-64
2022/07/14 11:15:42;;;;;;;;;;;;;;;30.15;33.03;155247.33;1769349;80;20185;-64
2022/07/14 11:18:22;;;;;;;;;;;;;;;30.10;32.94;155234.20;1774446;79;20093;-64
2022/07/14 11:21:05;;;;;;;;;;;;;;;30.04;33.05;155218.45;1780840;79;20412;-64
2022/07/14 11:23:32;;;;;;;;;;;;;;;30.01;33.43;155213.20;1684605;83;21230;-65
2022/07/14 11:26:02;;;;;;;;;;;;;;;30.04;33.40;155219.75;1730081;81;20160;-65
2022/07/14 11:28:33;;;;;;;;;;;;;;;30.09;33.48;155232.91;1781130;79;20169;-65
2022/07/14 11:31:15;;;;;;;;;;;;;;;30.09;33.05;155232.91;1778901;79;20222;-65
2022/07/14 11:36:29;;;;;;;;;;;;;;;29.89;33.58;155181.61;1771905;79;21872;-64
2022/07/14 11:39:16;;;;;;;;;;;;;;;30.08;33.00;155228.95;1782099;79;20186;-65
2022/07/14 11:41:45;;;;;;;;;;;;;;;30.12;33.16;155239.45;1774813;79;20960;-65
2022/07/14 11:44:35;;;;;;;;;;;;;;;30.20;33.11;155260.50;1770871;79;20166;-64
2022/07/14 11:47:08;;;;;;;;;;;;;;;30.28;32.99;155281.50;1777034;79;20224;-64
2022/07/14 11:49:36;;;;;;;;;;;;;;;30.44;32.58;155320.94;1771485;79;21143;-65
2022/07/14 11:52:05;;;;;;;;;;;;;;;30.59;32.34;155360.31;1785430;79;20165;-65
2022/07/14 11:54:31;;;;;;;;;;;;;;;30.67;31.98;155378.80;1779002;79;20110;-65
2022/07/14 11:57:08;;;;;;;;;;;;;;;30.66;31.33;155376.17;1777001;79;20494;-65
2022/07/14 11:59:37;;;;;;;;;;;;;;;30.55;31.35;155348.53;1759695;79;20148;-64
2022/07/14 12:02:08;;;;;;;;;;;;;;;30.57;32.26;155353.78;1738325;81;21392;-64
2022/07/14 12:04:34;;;;;;;;;;;;;;;30.65;32.39;155373.55;1735712;81;20422;-65
2022/07/14 12:07:01;;;;;;;;;;;;;;;30.75;32.19;155399.81;1707562;82;20137;-65
2022/07/14 12:09:30;;;;;;;;;;;;;;;30.78;31.89;155407.69;1716678;82;20163;-65
2022/07/14 12:11:57;;;;;;;;;;;;;;;30.79;32.02;155410.31;1722717;81;20221;-64
2022/07/14 12:14:24;;;;;;;;;;;;;;;30.93;31.67;155445.78;1725225;82;22097;-65
2022/07/14 12:16:52;;;;;;;;;;;;;;;31.09;31.17;155486.56;1728466;80;20210;-65
2022/07/14 12:19:29;;;;;;;;;;;;;;;31.12;30.91;155493.11;1728287;81;20251;-64
2022/07/14 12:22:00;;;;;;;;;;;;;;;31.07;31.03;155479.97;1726832;81;20486;-64
2022/07/14 12:24:26;;;;;;;;;;;;;;;31.07;31.13;155481.31;1734066;80;20219;-64
2022/07/14 12:26:59;;;;;;;;;;;;;;;31.16;30.91;155504.95;1715654;82;21231;-64
2022/07/14 12:29:26;;;;;;;;;;;;;;;31.35;31.07;155550.98;1710034;82;20123;-64
2022/07/14 12:31:53;;;;;;;;;;;;;;;31.57;30.79;155607.53;1715239;83;20163;-64
2022/07/14 12:34:20;;;;;;;;;;;;;;;31.67;30.63;155633.81;1709784;82;20562;-64
2022/07/14 12:36:46;;;;;;;;;;;;;;;31.75;30.53;155653.53;1733553;82;20218;-64
2022/07/14 12:39:13;;;;;;;;;;;;;;;31.69;34.55;155637.78;1693088;83;21331;-64
2022/07/14 12:41:40;;;;;;;;;;;;;;;31.44;35.17;155575.97;1730270;82;20131;-66
2022/07/14 12:44:10;;;;;;;;;;;;;;;31.35;34.75;155552.33;1726886;81;20231;-63
2022/07/14 12:46:37;;;;;;;;;;;;;;;31.51;36.14;155591.78;1734218;81;20130;-63
2022/07/14 12:49:05;;;;;;;;;;;;;;;31.65;36.27;155628.56;1740527;81;20187;-63
2022/07/14 12:51:39;;;;;;;;;;;;;;;31.65;36.40;155628.56;1732569;80;21184;-64
2022/07/14 12:54:19;;;;;;;;;;;;;;;31.64;36.48;155624.64;1739919;81;20232;-63